Time;durP1;ratioP1;P1;durP2;ratioP2;P2;SDS_P1;SDS_P2;PMS_P1;PMS_P2;Temp;Humidity;BMP_temperature;BMP_pressure;BME280_temperature;BME280_humidity;BME280_pressure;Samples;Min_cycle;Max_cycle;Signal;HPM_P1;HPM_P2
2022/02/28 00:00:52;;;;;;;3.75;2.22;;;;;;;26.07;26.41;97813.78;5003202;28;20563;-27
2022/02/28 00:03:18;;;;;;;;;;;;;;;26.08;26.47;97813.72;4985177;28;20124;-26
2022/02/28 00:05:43;;;;;;;4.47;2.33;;;;;;;26.09;26.52;97809.34;5001056;28;19916;-31
2022/02/28 00:08:08;;;;;;;4.93;2.30;;;;;;;26.08;26.45;97811.09;5001651;28;20538;-27
2022/02/28 00:10:34;;;;;;;4.25;2.53;;;;;;;26.09;26.43;97811.97;5000105;28;20036;-27
2022/02/28 00:12:59;;;;;;;3.83;2.30;;;;;;;26.09;26.45;97820.69;5000386;28;20044;-27
2022/02/28 00:15:25;;;;;;;3.83;2.20;;;;;;;26.07;26.47;97798.91;4999450;28;20026;-28
2022/02/28 00:17:50;;;;;;;3.38;2.05;;;;;;;26.09;26.38;97801.47;5001719;28;20041;-26
2022/02/28 00:20:16;;;;;;;4.57;2.35;;;;;;;26.09;26.35;97812.81;5001740;28;20030;-27
2022/02/28 00:22:41;;;;;;;3.58;2.03;;;;;;;26.09;26.45;97807.56;5000853;28;20520;-27
2022/02/28 00:25:08;;;;;;;3.80;2.40;;;;;;;26.08;26.50;97807.59;5000802;28;20029;-26
2022/02/28 00:27:33;;;;;;;6.32;2.75;;;;;;;26.08;26.49;97804.97;4999412;28;20071;-26
2022/02/28 00:29:59;;;;;;;2.88;2.03;;;;;;;26.09;26.50;97812.81;5002367;28;21390;-26
2022/02/28 00:32:24;;;;;;;3.63;2.45;;;;;;;26.08;26.38;97805.84;4998723;28;20087;-27
2022/02/28 00:34:50;;;;;;;9.55;2.47;;;;;;;26.08;26.37;97805.84;4997036;28;20061;-27
2022/02/28 00:37:15;;;;;;;2.95;1.95;;;;;;;26.09;26.43;97807.56;5001757;28;20083;-27
2022/02/28 00:39:41;;;;;;;3.35;1.90;;;;;;;26.09;26.48;97801.47;5000177;28;20024;-28
2022/02/28 00:42:07;;;;;;;3.58;2.00;;;;;;;26.08;26.43;97797.97;5000820;28;20018;-29
2022/02/28 00:44:32;;;;;;;2.30;1.85;;;;;;;26.08;26.40;97808.47;5002492;28;20057;-27
2022/02/28 00:46:57;;;;;;;3.35;2.03;;;;;;;26.07;26.54;97809.41;5000356;28;20504;-27
2022/02/28 00:49:23;;;;;;;3.05;1.90;;;;;;;26.07;26.47;97793.63;5000132;28;20033;-29
2022/02/28 00:51:48;;;;;;;3.80;2.22;;;;;;;26.05;26.55;97800.69;4983066;28;20122;-29
2022/02/28 00:54:14;;;;;;;3.15;2.05;;;;;;;26.07;26.37;97798.91;4998691;28;20033;-27
2022/02/28 00:56:39;;;;;;;3.50;2.30;;;;;;;26.07;26.38;97798.91;5002007;28;20041;-30
2022/02/28 00:59:04;;;;;;;3.90;2.20;;;;;;;26.07;26.43;97798.03;5002903;28;20060;-28
2022/02/28 01:01:30;;;;;;;3.60;2.20;;;;;;;26.07;26.44;97793.63;5005860;28;20727;-27
2022/02/28 01:03:55;;;;;;;3.15;2.13;;;;;;;26.07;26.59;97803.28;4999961;28;20053;-29
2022/02/28 01:06:21;;;;;;;2.10;1.77;;;;;;;26.07;26.63;97793.63;4998768;28;20033;-28
2022/02/28 01:08:46;;;;;;;2.65;1.98;;;;;;;26.05;26.43;97792.81;5002880;28;20033;-27
2022/02/28 01:11:11;;;;;;;3.53;2.00;;;;;;;26.06;26.63;97797.19;5000090;28;20633;-29
2022/02/28 01:13:37;;;;;;;3.53;1.80;;;;;;;26.06;26.44;97802.44;5000180;28;20029;-26
2022/02/28 01:16:03;;;;;;;2.58;1.85;;;;;;;26.06;26.47;97801.56;4999784;28;20053;-28
2022/02/28 01:18:28;;;;;;;2.75;1.98;;;;;;;26.05;26.60;97795.44;5003334;28;20106;-28
2022/02/28 01:20:53;;;;;;;2.80;1.88;;;;;;;26.05;26.58;97790.19;5006589;28;20025;-27
2022/02/28 01:23:19;;;;;;;2.13;1.85;;;;;;;26.05;26.49;97792.81;5008389;28;20068;-27
2022/02/28 01:25:44;;;;;;;4.38;1.98;;;;;;;26.05;26.59;97803.34;5008907;28;20117;-27
2022/02/28 01:28:10;;;;;;;2.53;1.90;;;;;;;26.04;26.42;97788.50;5009126;28;20514;-27
2022/02/28 01:30:35;;;;;;;2.45;1.60;;;;;;;26.05;26.48;97803.34;5006769;28;20124;-28
2022/02/28 01:33:01;;;;;;;3.78;2.20;;;;;;;26.06;26.56;97796.31;5014692;28;20036;-28
2022/02/28 01:35:29;;;;;;;3.38;1.75;;;;;;;26.04;26.48;97801.63;5013479;28;20503;-26
2022/02/28 01:37:54;;;;;;;3.58;2.10;;;;;;;26.04;26.62;97796.38;5014586;28;20034;-27
2022/02/28 01:40:19;;;;;;;2.95;2.00;;;;;;;26.04;26.43;97799.00;5015519;28;20033;-30
2022/02/28 01:42:45;;;;;;;4.00;1.73;;;;;;;26.03;26.52;97797.28;5015034;28;20064;-33
2022/02/28 01:45:16;;;;;;;4.75;2.00;;;;;;;26.02;26.59;97792.97;5013968;28;20147;-29
2022/02/28 01:47:42;;;;;;;2.22;1.90;;;;;;;26.03;26.45;97791.16;5010145;28;20120;-28
2022/02/28 01:50:08;;;;;;;3.05;2.17;;;;;;;26.03;26.56;97785.91;5005847;28;20533;-27
2022/02/28 01:52:33;;;;;;;2.53;1.90;;;;;;;26.02;26.50;97787.72;4997562;28;20029;-27
2022/02/28 01:54:59;;;;;;;2.20;1.67;;;;;;;26.02;26.52;97784.22;4998317;28;20041;-26
2022/02/28 01:57:24;;;;;;;3.75;1.90;;;;;;;26.02;26.61;97781.59;5000067;28;20064;-27
2022/02/28 01:59:51;;;;;;;3.05;2.08;;;;;;;26.01;26.53;97783.34;5000058;28;20029;-28
2022/02/28 02:02:16;;;;;;;2.78;1.90;;;;;;;26.03;26.58;97778.03;5000356;28;20033;-29
2022/02/28 02:04:42;;;;;;;2.58;1.80;;;;;;;26.01;26.44;97778.09;5001331;28;20098;-26
2022/02/28 02:07:07;;;;;;;3.25;2.03;;;;;;;26.02;26.60;97778.97;4980849;28;20025;-28
2022/02/28 02:09:34;;;;;;;2.10;1.70;;;;;;;26.01;26.62;97780.72;4966237;28;20030;-32
2022/02/28 02:12:00;;;;;;;2.85;1.90;;;;;;;26.00;26.59;97771.13;4998396;28;20095;-28
2022/02/28 02:14:25;;;;;;;3.92;2.03;;;;;;;26.00;26.53;97771.13;5001967;28;20116;-28
2022/02/28 02:16:50;;;;;;;2.95;1.95;;;;;;;25.99;26.26;97769.44;5000187;28;20492;-27
2022/02/28 02:19:16;;;;;;;2.80;1.67;;;;;;;26.00;26.51;97770.31;5000932;28;20051;-28
2022/02/28 02:21:41;;;;;;;2.97;1.70;;;;;;;25.99;26.63;97779.94;4999287;28;21059;-28
2022/02/28 02:24:07;;;;;;;3.33;1.85;;;;;;;25.99;26.67;97777.31;5001019;28;20036;-29
2022/02/28 02:26:32;;;;;;;1.70;1.60;;;;;;;25.98;26.64;97772.13;4999535;28;20576;-29
2022/02/28 02:28:57;;;;;;;2.45;1.70;;;;;;;25.99;26.61;97779.94;4998210;28;20041;-30
2022/02/28 02:31:23;;;;;;;2.33;1.70;;;;;;;25.97;26.65;97789.63;5000892;28;20091;-30
2022/02/28 02:33:49;;;;;;;2.42;1.92;;;;;;;25.97;26.50;97787.00;4999370;28;20022;-29
2022/02/28 02:36:18;;;;;;;1.80;1.40;;;;;;;25.96;26.65;97791.41;4999279;28;20040;-27
2022/02/28 02:38:43;;;;;;;3.22;1.90;;;;;;;25.97;26.50;97797.50;4999135;28;20587;-26
2022/02/28 02:41:09;;;;;;;1.95;1.70;;;;;;;25.97;26.47;97792.25;4999312;28;20038;-27
2022/02/28 02:43:35;;;;;;;2.25;1.55;;;;;;;25.97;26.84;97787.00;5004683;28;20408;-27
2022/02/28 02:46:00;;;;;;;4.07;1.60;;;;;;;25.98;26.30;97793.13;4996454;28;20087;-29
2022/02/28 02:48:26;;;;;;;2.25;1.38;;;;;;;25.97;26.92;97797.50;4999878;28;20030;-27
2022/02/28 02:50:51;;;;;;;3.53;1.65;;;;;;;25.98;26.37;97795.75;4996349;28;20543;-28
2022/02/28 02:53:17;;;;;;;2.47;1.70;;;;;;;25.96;26.63;97803.69;4999202;28;21546;-26
2022/02/28 02:55:42;;;;;;;2.22;1.50;;;;;;;25.98;26.59;97793.13;4997519;28;20029;-26
2022/02/28 02:58:08;;;;;;;2.90;1.70;;;;;;;25.95;26.49;97788.84;4999854;28;20531;-28
2022/02/28 03:00:34;;;;;;;2.42;1.80;;;;;;;25.96;26.48;97793.19;5001068;28;20029;-27
2022/02/28 03:02:59;;;;;;;2.72;1.75;;;;;;;25.95;26.55;97794.97;5001898;28;20029;-26
2022/02/28 03:05:25;;;;;;;2.53;1.70;;;;;;;25.95;26.48;97791.47;5000991;28;20033;-26
2022/02/28 03:07:50;;;;;;;1.85;1.30;;;;;;;25.94;26.63;97784.50;5009801;28;20111;-27
2022/02/28 03:10:15;;;;;;;1.77;1.38;;;;;;;25.94;26.57;97787.97;5001996;28;20037;-28
2022/02/28 03:12:41;;;;;;;1.90;1.55;;;;;;;25.93;26.64;97785.44;5001688;28;20033;-25
2022/02/28 03:15:07;;;;;;;1.42;1.20;;;;;;;25.93;26.52;97785.44;5001613;28;20036;-25
2022/02/28 03:17:33;;;;;;;1.75;1.63;;;;;;;25.93;26.63;97780.19;5003951;28;20029;-28
2022/02/28 03:19:58;;;;;;;1.92;1.60;;;;;;;25.92;26.75;97771.44;5002170;28;20047;-27
2022/02/28 03:22:24;;;;;;;2.67;1.50;;;;;;;25.93;26.64;97780.19;5003195;28;20041;-29
2022/02/28 03:24:49;;;;;;;2.30;1.60;;;;;;;25.92;26.66;97779.31;5002541;28;20041;-27
2022/02/28 03:27:14;;;;;;;2.38;1.50;;;;;;;25.93;26.66;97785.44;5001441;28;20021;-28
2022/02/28 03:29:40;;;;;;;2.17;1.65;;;;;;;25.92;26.67;97783.69;5004851;28;20571;-27
2022/02/28 03:32:05;;;;;;;2.58;1.50;;;;;;;25.92;26.68;97788.97;5010436;28;20028;-26
2022/02/28 03:34:31;;;;;;;2.78;1.63;;;;;;;25.91;26.51;97787.25;5001001;28;20082;-27
2022/02/28 03:36:56;;;;;;;1.98;1.50;;;;;;;25.91;26.63;97782.00;5003010;28;20029;-26
2022/02/28 03:39:25;;;;;;;1.73;1.30;;;;;;;25.91;26.63;97782.88;5003000;28;20039;-28
2022/02/28 03:41:53;;;;;;;1.73;1.40;;;;;;;25.90;26.62;97781.13;5000879;28;20049;-27
2022/02/28 03:44:19;;;;;;;2.05;1.50;;;;;;;25.90;26.64;97791.63;5001508;28;20032;-26
2022/02/28 03:46:45;;;;;;;2.03;1.35;;;;;;;25.91;26.65;97795.13;5000235;28;20169;-27
2022/02/28 03:49:10;;;;;;;1.70;1.50;;;;;;;25.89;26.56;97804.84;5002301;28;20029;-27
2022/02/28 03:51:35;;;;;;;1.63;1.40;;;;;;;25.90;26.59;97796.88;5003116;28;20028;-28
2022/02/28 03:54:01;;;;;;;1.40;1.30;;;;;;;25.90;26.57;97796.06;5002886;28;20071;-26
2022/02/28 03:56:26;;;;;;;5.65;1.45;;;;;;;25.89;26.54;97789.09;4999750;28;20032;-27
2022/02/28 03:58:51;;;;;;;2.05;1.50;;;;;;;25.90;26.66;97790.78;5002616;28;20025;-29
2022/02/28 04:01:17;;;;;;;1.88;1.50;;;;;;;25.89;26.60;97783.84;5002704;28;20026;-28
2022/02/28 04:03:42;;;;;;;1.70;1.40;;;;;;;25.88;26.82;97782.09;5002533;28;20540;-27
2022/02/28 04:06:08;;;;;;;1.40;1.30;;;;;;;25.88;26.78;97787.34;5002690;28;20021;-27
2022/02/28 04:08:33;;;;;;;2.33;1.30;;;;;;;25.88;26.66;97782.97;5003847;28;20458;-28
2022/02/28 04:10:59;;;;;;;1.80;1.45;;;;;;;25.88;26.72;97782.09;5001624;28;20044;-27
2022/02/28 04:13:24;;;;;;;1.45;1.35;;;;;;;25.87;26.77;97780.41;5001426;28;20036;-26
2022/02/28 04:15:50;;;;;;;1.90;1.30;;;;;;;25.87;26.65;97780.41;5000734;28;20021;-28
2022/02/28 04:18:15;;;;;;;2.05;1.60;;;;;;;25.86;26.61;97778.69;5001613;28;21826;-28
2022/02/28 04:20:41;;;;;;;1.73;1.30;;;;;;;25.86;26.53;97786.56;5001929;28;20068;-26
2022/02/28 04:23:06;;;;;;;1.25;1.15;;;;;;;25.86;26.65;97783.94;5000888;28;20034;-26
2022/02/28 04:25:32;;;;;;;2.17;1.30;;;;;;;25.85;26.67;97787.50;5002242;28;20034;-26
2022/02/28 04:27:57;;;;;;;2.28;1.35;;;;;;;25.85;26.68;97787.50;5002496;28;20995;-32
2022/02/28 04:30:22;;;;;;;1.85;1.40;;;;;;;25.85;26.59;97790.13;4999259;28;20122;-30
2022/02/28 04:32:48;;;;;;;1.65;1.30;;;;;;;25.84;26.81;97786.63;5005163;28;20029;-30
2022/02/28 04:35:13;;;;;;;1.70;1.15;;;;;;;25.83;26.69;97780.50;5002140;28;20036;-25
2022/02/28 04:37:38;;;;;;;1.80;1.30;;;;;;;25.84;26.68;97776.13;5002453;28;20033;-29
2022/02/28 04:40:05;;;;;;;2.25;1.50;;;;;;;25.83;26.71;97779.66;5000879;28;20760;-28
2022/02/28 04:42:30;;;;;;;3.00;1.45;;;;;;;25.83;26.59;97784.91;5000595;28;20242;-28
2022/02/28 04:44:56;;;;;;;1.98;1.20;;;;;;;25.82;26.59;97778.81;5006601;28;21957;-25
2022/02/28 04:47:22;;;;;;;1.42;1.13;;;;;;;25.83;26.65;97791.00;5000081;28;20029;-28
2022/02/28 04:49:47;;;;;;;2.28;1.30;;;;;;;25.82;26.54;97786.69;4999772;28;20029;-28
2022/02/28 04:52:13;;;;;;;1.55;1.30;;;;;;;25.82;26.57;97786.69;5001929;28;20667;-27
2022/02/28 04:54:38;;;;;;;1.92;1.30;;;;;;;25.82;26.49;97785.84;5000869;28;20033;-29
2022/02/28 04:57:03;;;;;;;1.80;1.27;;;;;;;25.80;26.57;97791.16;5000528;28;20403;-30
2022/02/28 04:59:29;;;;;;;1.45;1.23;;;;;;;25.80;26.68;97791.16;5001020;28;20037;-28
2022/02/28 05:01:54;;;;;;;1.50;1.20;;;;;;;25.80;26.47;97793.78;5006997;28;20030;-29
2022/02/28 05:04:20;;;;;;;1.33;1.15;;;;;;;25.80;26.69;97795.53;5004447;28;20182;-30
2022/02/28 05:06:45;;;;;;;2.10;1.60;;;;;;;25.80;26.79;97801.66;5004911;28;20038;-28
2022/02/28 05:09:10;;;;;;;1.25;1.10;;;;;;;25.80;26.75;97806.91;5008698;28;20033;-27
2022/02/28 05:11:36;;;;;;;2.25;1.50;;;;;;;25.79;26.71;97805.19;5009258;28;20526;-31
2022/02/28 05:14:01;;;;;;;1.30;1.17;;;;;;;25.79;26.80;97810.44;5007707;28;20029;-29
2022/02/28 05:16:27;;;;;;;2.75;1.52;;;;;;;25.79;26.69;97807.81;5008309;28;20041;-27
2022/02/28 05:18:52;;;;;;;1.48;1.30;;;;;;;25.78;26.65;97808.72;5008141;28;20056;-28
2022/02/28 05:21:18;;;;;;;1.55;1.27;;;;;;;25.78;26.82;97813.97;5008785;28;20027;-27
2022/02/28 05:23:43;;;;;;;1.25;1.10;;;;;;;25.78;26.81;97813.97;5007389;28;20934;-27
2022/02/28 05:26:08;;;;;;;1.63;1.30;;;;;;;25.78;26.77;97816.59;5008419;28;20072;-28
2022/02/28 05:28:34;;;;;;;2.15;1.40;;;;;;;25.79;26.77;97814.84;5006787;28;20475;-27
2022/02/28 05:30:59;;;;;;;1.30;1.05;;;;;;;25.78;26.82;97807.88;5008320;28;20033;-28
2022/02/28 05:33:25;;;;;;;1.10;1.00;;;;;;;25.77;26.74;97806.13;5008496;28;20549;-27
2022/02/28 05:35:50;;;;;;;1.45;1.13;;;;;;;25.77;26.72;97822.75;5010673;28;20067;-28
2022/02/28 05:38:16;;;;;;;1.33;1.23;;;;;;;25.76;26.81;97821.06;5001712;28;20033;-26
2022/02/28 05:40:41;;;;;;;2.78;1.35;;;;;;;25.77;26.73;97811.38;4999060;28;20037;-28
2022/02/28 05:43:07;;;;;;;1.85;1.40;;;;;;;25.77;26.70;97816.63;4981361;28;20037;-28
2022/02/28 05:45:35;;;;;;;1.20;1.10;;;;;;;25.77;26.63;97811.38;5001927;28;20049;-29
2022/02/28 05:48:05;;;;;;;2.08;1.45;;;;;;;25.76;26.92;97810.56;5005980;28;20037;-27
2022/02/28 05:50:30;;;;;;;1.58;1.30;;;;;;;25.76;26.65;97820.19;5006165;28;20025;-27
2022/02/28 05:52:56;;;;;;;1.30;1.13;;;;;;;25.75;26.88;97819.34;5006791;28;20553;-27
2022/02/28 05:55:21;;;;;;;1.83;1.35;;;;;;;25.75;26.76;97827.22;5007541;28;20349;-28
2022/02/28 05:57:48;;;;;;;1.67;1.15;;;;;;;25.75;26.82;97829.84;5005280;28;20512;-28
2022/02/28 06:00:14;;;;;;;1.52;1.10;;;;;;;25.74;26.68;97830.72;5006826;28;20111;-27
2022/02/28 06:02:39;;;;;;;1.80;1.10;;;;;;;25.74;26.75;97828.09;5001310;28;20657;-27
2022/02/28 06:05:05;;;;;;;1.88;1.30;;;;;;;25.74;26.61;97833.38;4999666;28;20102;-29
2022/02/28 06:07:30;;;;;;;1.98;1.45;;;;;;;25.75;26.76;97834.22;4999004;28;20088;-28
2022/02/28 06:09:56;;;;;;;1.42;1.20;;;;;;;25.75;26.79;97828.97;5000420;28;20037;-30
2022/02/28 06:12:21;;;;;;;1.88;1.30;;;;;;;25.75;26.72;97840.34;5003573;28;20080;-28
2022/02/28 06:14:47;;;;;;;2.00;1.23;;;;;;;25.75;26.68;97836.84;5001698;28;20021;-26
2022/02/28 06:17:12;;;;;;;1.92;1.25;;;;;;;25.75;26.68;97835.09;5004690;28;20494;-26
2022/02/28 06:19:38;;;;;;;1.70;1.35;;;;;;;25.75;26.77;97835.09;5001396;28;20387;-27
2022/02/28 06:22:04;;;;;;;1.67;1.30;;;;;;;25.76;26.68;97839.44;5002890;28;20038;-28
2022/02/28 06:24:29;;;;;;;1.50;1.35;;;;;;;25.75;26.63;97835.09;5005102;28;20566;-29
2022/02/28 06:26:55;;;;;;;1.75;1.15;;;;;;;25.76;26.60;97842.06;5003185;28;20041;-25
2022/02/28 06:29:20;;;;;;;1.30;1.20;;;;;;;25.77;26.64;97838.50;5003372;28;20033;-27
2022/02/28 06:31:46;;;;;;;2.10;1.35;;;;;;;25.75;26.45;97842.97;4985608;28;20030;-27
2022/02/28 06:34:11;;;;;;;2.17;1.65;;;;;;;25.76;26.56;97842.06;5005791;28;20033;-28
2022/02/28 06:36:37;;;;;;;5.28;1.75;;;;;;;25.76;26.53;97838.56;5011352;28;20021;-30
2022/02/28 06:39:03;;;;;;;2.60;1.60;;;;;;;25.77;26.50;97840.25;5011350;28;20063;-29
2022/02/28 06:41:28;;;;;;;2.25;1.17;;;;;;;25.76;26.68;97839.44;5013488;28;20417;-29
2022/02/28 06:43:54;;;;;;;2.03;1.23;;;;;;;25.78;26.64;97840.22;5012832;28;20024;-29
2022/02/28 06:46:20;;;;;;;2.25;1.40;;;;;;;25.78;26.69;97834.97;5011573;28;20037;-25
2022/02/28 06:48:45;;;;;;;2.00;1.40;;;;;;;25.78;26.55;97827.09;5007474;28;21720;-28
2022/02/28 06:51:11;;;;;;;9.98;2.60;;;;;;;25.79;26.80;97839.31;5008528;28;20030;-27
2022/02/28 06:53:36;;;;;;;3.35;1.75;;;;;;;25.76;26.59;97831.56;5009817;28;20075;-27
2022/02/28 06:56:02;;;;;;;3.33;1.50;;;;;;;25.78;26.72;97840.22;5012258;28;20276;-26
2022/02/28 06:58:27;;;;;;;2.25;1.60;;;;;;;25.77;26.67;97845.53;5009546;28;20068;-26
2022/02/28 07:00:53;;;;;;;3.10;1.88;;;;;;;25.77;26.73;97849.00;5011838;28;20029;-27
2022/02/28 07:03:18;;;;;;;2.60;1.70;;;;;;;25.77;26.69;97845.53;5010322;28;20814;-26
2022/02/28 07:05:48;;;;;;;4.78;2.60;;;;;;;25.78;26.66;97839.38;5008017;28;20029;-26
2022/02/28 07:08:17;;;;;;;8.57;3.10;;;;;;;25.77;26.66;97842.91;5010696;28;21633;-28
2022/02/28 07:10:43;;;;;;;9.68;2.92;;;;;;;25.76;26.87;97842.06;4989901;28;20069;-26
2022/02/28 07:13:09;;;;;;;4.72;2.45;;;;;;;25.77;26.75;97842.91;4988060;28;20103;-26
2022/02/28 07:15:35;;;;;;;6.10;2.75;;;;;;;25.76;26.68;97852.56;5006794;28;20037;-27
2022/02/28 07:18:00;;;;;;;9.43;2.63;;;;;;;25.77;26.74;97849.00;4986922;28;20029;-30
2022/02/28 07:20:26;;;;;;;7.97;2.40;;;;;;;25.78;26.81;97847.25;5006652;28;20069;-26
2022/02/28 07:22:51;;;;;;;6.70;2.50;;;;;;;25.79;26.91;97851.59;5003875;28;20030;-27
2022/02/28 07:25:17;;;;;;;4.50;2.30;;;;;;;25.79;26.93;97848.97;5006490;28;20714;-28
2022/02/28 07:27:42;;;;;;;5.22;2.45;;;;;;;25.80;26.94;97848.91;5004249;28;20514;-26
2022/02/28 07:30:08;;;;;;;5.07;2.47;;;;;;;25.82;26.94;97848.88;5004541;28;20035;-28
2022/02/28 07:32:33;;;;;;;5.78;2.75;;;;;;;25.82;26.96;97862.81;5010907;28;20029;-28
2022/02/28 07:34:59;;;;;;;8.43;2.60;;;;;;;25.83;26.97;97856.66;4995547;28;20044;-29
2022/02/28 07:37:24;;;;;;;6.90;2.60;;;;;;;25.86;27.15;97846.97;5012221;28;20120;-27
2022/02/28 07:39:50;;;;;;;6.50;2.50;;;;;;;25.85;27.08;97846.09;5014296;28;20642;-27
2022/02/28 07:42:15;;;;;;;6.07;2.70;;;;;;;25.87;27.17;97856.56;5011461;28;20029;-27
2022/02/28 07:44:40;;;;;;;8.30;3.30;;;;;;;25.89;27.34;97854.75;5010386;28;20037;-29
2022/02/28 07:47:07;;;;;;;7.80;2.97;;;;;;;25.88;27.23;97850.38;5001757;28;20032;-28
2022/02/28 07:49:35;;;;;;;6.68;3.15;;;;;;;25.89;27.14;97852.94;4983230;28;20538;-28
2022/02/28 07:52:01;;;;;;;8.25;3.72;;;;;;;25.91;26.96;97851.16;5002745;28;20077;-29
2022/02/28 07:54:27;;;;;;;7.78;3.22;;;;;;;25.92;27.10;97851.97;5000403;28;20706;-26
2022/02/28 07:56:52;;;;;;;7.43;3.38;;;;;;;25.92;27.00;97857.22;5001333;28;20040;-27
2022/02/28 07:59:17;;;;;;;8.20;3.50;;;;;;;25.92;27.09;97863.34;5001390;28;20041;-29
2022/02/28 08:01:43;;;;;;;6.22;3.20;;;;;;;25.94;26.86;97855.44;5001855;28;20044;-26
2022/02/28 08:04:08;;;;;;;9.15;3.42;;;;;;;25.94;26.83;97855.44;5001622;28;20021;-27
2022/02/28 08:06:34;;;;;;;35.13;5.22;;;;;;;25.93;26.49;97858.97;4999400;28;20030;-26
2022/02/28 08:08:59;;;;;;;17.92;5.30;;;;;;;25.91;25.71;97858.16;5002123;28;20033;-26
2022/02/28 08:11:24;;;;;;;13.32;5.43;;;;;;;25.88;24.82;97855.63;5000918;28;20048;-28
2022/02/28 08:13:50;;;;;;;13.50;3.92;;;;;;;25.83;25.12;97854.03;5001792;28;20087;-26
2022/02/28 08:16:15;;;;;;;13.98;4.00;;;;;;;25.83;25.93;97855.81;5000050;28;20079;-28
2022/02/28 08:18:42;;;;;;;8.18;3.70;;;;;;;25.82;25.72;97854.09;4999141;28;20029;-27
2022/02/28 08:21:07;;;;;;;10.23;3.50;;;;;;;25.85;25.93;97858.38;5001519;28;20025;-28
2022/02/28 08:23:33;;;;;;;10.07;3.30;;;;;;;25.88;25.93;97866.13;5003352;28;20033;-26
2022/02/28 08:25:58;;;;;;;12.00;3.28;;;;;;;25.91;26.06;97866.03;5000922;28;20029;-27
2022/02/28 08:28:24;;;;;;;7.90;3.60;;;;;;;25.94;26.19;97869.41;5002408;28;20869;-27
2022/02/28 08:30:50;;;;;;;12.27;3.97;;;;;;;25.99;26.15;97869.25;5000174;28;20065;-28
2022/02/28 08:33:15;;;;;;;7.43;3.00;;;;;;;26.02;26.33;97877.00;5001273;28;20048;-29
2022/02/28 08:35:41;;;;;;;8.25;2.90;;;;;;;26.07;26.24;97877.69;5000768;28;20508;-30
2022/02/28 08:38:06;;;;;;;9.30;2.88;;;;;;;26.11;26.54;97883.69;4999458;28;20026;-28
2022/02/28 08:40:32;;;;;;;15.80;5.32;;;;;;;26.15;25.77;97884.41;4998191;28;20099;-29
2022/02/28 08:42:57;;;;;;;13.80;3.30;;;;;;;26.17;25.75;97887.84;4999768;28;20064;-28
2022/02/28 08:45:23;;;;;;;6.32;2.83;;;;;;;26.19;25.97;97876.38;5004228;28;20065;-27
2022/02/28 08:47:48;;;;;;;10.48;2.70;;;;;;;26.22;25.92;97878.91;5002476;28;20219;-27
2022/02/28 08:50:16;;;;;;;6.70;3.20;;;;;;;26.26;25.69;97882.28;4999007;28;20395;-27
2022/02/28 08:52:44;;;;;;;7.70;3.05;;;;;;;26.29;26.00;97871.66;5005949;28;20022;-26
2022/02/28 08:55:10;;;;;;;9.38;3.25;;;;;;;26.32;25.91;97875.94;5008533;28;20028;-30
2022/02/28 08:57:36;;;;;;;7.32;3.40;;;;;;;26.34;26.01;97868.84;5010848;28;20025;-27
2022/02/28 09:00:03;;;;;;;6.57;2.63;;;;;;;26.37;25.82;97876.63;5013343;28;20395;-28
2022/02/28 09:02:29;;;;;;;9.38;4.00;;;;;;;26.37;25.25;97865.25;5014693;28;20040;-27
2022/02/28 09:04:54;;;;;;;12.65;4.13;;;;;;;26.35;25.04;97866.16;5012845;28;20033;-32
2022/02/28 09:07:20;;;;;;;8.13;3.40;;;;;;;26.35;25.04;97874.06;5015172;28;20038;-28
2022/02/28 09:09:45;;;;;;;11.15;3.10;;;;;;;26.36;25.39;97877.53;5016063;28;20451;-27
2022/02/28 09:12:11;;;;;;;11.13;2.65;;;;;;;26.39;25.28;97876.56;5014034;28;20026;-28
2022/02/28 09:14:36;;;;;;;10.27;3.55;;;;;;;26.38;25.36;97861.72;5013784;28;20048;-28
2022/02/28 09:17:03;;;;;;;15.30;3.35;;;;;;;26.39;25.38;97866.06;5010636;28;20435;-29
2022/02/28 09:19:28;;;;;;;13.60;3.65;;;;;;;26.41;25.28;97865.09;5012598;28;20029;-27
2022/02/28 09:21:54;;;;;;;10.82;3.15;;;;;;;26.43;25.34;97868.50;5008722;28;22333;-27
2022/02/28 09:24:20;;;;;;;13.98;3.58;;;;;;;26.45;25.53;97865.81;5006212;28;20033;-28
2022/02/28 09:26:46;;;;;;;8.80;3.70;;;;;;;26.47;25.68;97871.88;5006323;28;20059;-27
2022/02/28 09:29:11;;;;;;;7.07;3.53;;;;;;;26.49;25.62;97864.78;5006521;28;20088;-30
2022/02/28 09:31:36;;;;;;;10.73;3.47;;;;;;;26.52;25.72;97872.53;5014870;28;20044;-26
2022/02/28 09:34:02;;;;;;;7.60;3.40;;;;;;;26.55;25.94;97867.16;5010810;28;20033;-28
2022/02/28 09:36:28;;;;;;;11.57;3.53;;;;;;;26.57;25.90;97865.34;5013320;28;20042;-29
2022/02/28 09:38:53;;;;;;;8.52;3.63;;;;;;;26.61;25.94;97866.94;5009186;28;20029;-28
2022/02/28 09:41:19;;;;;;;7.20;3.10;;;;;;;26.64;26.07;97867.72;5006727;28;20030;-26
2022/02/28 09:43:44;;;;;;;13.40;6.00;;;;;;;26.62;22.94;97867.78;5004108;28;20022;-29
2022/02/28 09:46:10;;;;;;;10.93;7.40;;;;;;;26.45;18.71;97864.03;5005819;28;20037;-28
2022/02/28 09:48:35;;;;;;;10.48;7.50;;;;;;;26.19;17.90;97865.88;5006819;28;20029;-25
2022/02/28 09:51:01;;;;;;;13.43;6.40;;;;;;;25.94;17.41;97865.94;4990385;28;21776;-30
2022/02/28 09:53:26;;;;;;;8.48;6.00;;;;;;;25.68;18.06;97876.47;5007028;28;20043;-30
2022/02/28 09:55:52;;;;;;;8.60;5.65;;;;;;;25.51;18.35;97869.13;5003932;28;20040;-27
2022/02/28 09:58:26;;;;;;;8.35;5.60;;;;;;;25.40;19.02;97876.53;5005560;28;20026;-29
2022/02/28 10:00:52;;;;;;;7.70;4.93;;;;;;;25.36;19.40;97870.53;5005653;28;20408;-29
2022/02/28 10:03:18;;;;;;;7.90;4.72;;;;;;;25.36;19.85;97877.56;5005661;28;20551;-28
2022/02/28 10:05:43;;;;;;;8.20;4.15;;;;;;;25.38;20.29;97879.22;5008854;28;20132;-28
2022/02/28 10:08:12;;;;;;;6.15;4.10;;;;;;;25.41;20.58;97888.75;5005636;28;20035;-28
2022/02/28 10:10:39;;;;;;;6.82;4.35;;;;;;;25.46;20.84;97889.44;5005588;28;20026;-27
2022/02/28 10:13:04;;;;;;;6.55;4.35;;;;;;;25.52;20.89;97886.59;5003979;28;20040;-31
2022/02/28 10:15:30;;;;;;;7.18;3.95;;;;;;;25.59;21.16;97883.81;5005363;28;20028;-32
2022/02/28 10:17:57;;;;;;;23.38;4.10;;;;;;;25.63;21.69;97881.00;4994417;28;20026;-29
2022/02/28 10:20:36;;;;;;;13.05;4.47;;;;;;;25.70;21.82;97889.50;4988774;28;20649;-28
2022/02/28 10:23:05;;;;;;;18.63;4.38;;;;;;;25.75;21.97;97890.22;5005859;28;20415;-28
2022/02/28 10:25:35;;;;;;;9.77;3.70;;;;;;;25.81;22.09;97889.13;5004467;28;20033;-27
2022/02/28 10:28:15;;;;;;;11.43;4.18;;;;;;;25.87;22.26;97891.56;5005877;28;20033;-28
2022/02/28 10:30:49;;;;;;;10.00;3.75;;;;;;;25.92;22.27;97879.13;5006686;28;20037;-28
2022/02/28 10:33:14;;;;;;;14.13;4.03;;;;;;;25.98;22.57;97872.78;4994859;28;20036;-29
2022/02/28 10:35:59;;;;;;;10.13;3.97;;;;;;;26.03;22.63;97878.72;5008890;28;20037;-29
2022/02/28 10:38:25;;;;;;;13.73;3.75;;;;;;;26.07;22.71;97880.31;5008045;28;20108;-33
2022/02/28 10:40:51;;;;;;;9.57;4.20;;;;;;;26.14;22.64;97872.19;5012703;28;20040;-28
2022/02/28 10:43:26;;;;;;;10.48;4.25;;;;;;;26.18;22.77;97879.06;5010585;28;20026;-29
2022/02/28 10:45:52;;;;;;;13.63;4.47;;;;;;;26.22;22.88;97878.03;5008497;28;20408;-31
2022/02/28 10:48:17;;;;;;;15.00;4.15;;;;;;;26.25;23.01;97875.28;5009572;28;20140;-26
2022/02/28 10:50:43;;;;;;;19.73;4.65;;;;;;;26.25;23.31;97875.28;5002717;28;20033;-28
2022/02/28 10:53:15;;;;;;;34.55;4.82;;;;;;;26.25;23.41;97863.91;5007521;28;20025;-28
2022/02/28 10:55:41;;;;;;;12.55;4.88;;;;;;;26.26;23.30;97866.53;5001794;28;20025;-29
2022/02/28 10:58:36;;;;;;;17.90;4.15;;;;;;;26.27;23.58;97865.59;5002947;28;20021;-27
2022/02/28 11:01:09;;;;;;;10.80;4.00;;;;;;;26.31;23.50;97859.31;4981864;28;20044;-30
2022/02/28 11:03:50;;;;;;;12.35;4.05;;;;;;;26.33;23.68;97860.13;5003016;28;20029;-31
2022/02/28 11:06:25;;;;;;;11.13;3.83;;;;;;;26.37;23.53;97862.63;4988017;28;20042;-29
2022/02/28 11:08:51;;;;;;;11.52;4.25;;;;;;;26.40;23.34;97857.25;4986000;28;20025;-28
2022/02/28 11:11:16;;;;;;;14.20;4.55;;;;;;;26.42;23.77;97850.16;4998971;28;20053;-28
2022/02/28 11:13:42;;;;;;;9.00;3.88;;;;;;;26.43;23.70;97852.72;5006174;28;20032;-29
2022/02/28 11:16:09;;;;;;;14.45;4.00;;;;;;;26.46;24.10;97852.59;5011262;28;20025;-25
2022/02/28 11:18:37;;;;;;;8.27;3.55;;;;;;;26.48;23.93;97855.19;5010704;28;20037;-30
2022/02/28 11:21:03;;;;;;;8.40;3.70;;;;;;;26.50;23.93;97850.72;5014537;28;20030;-27
2022/02/28 11:23:28;;;;;;;8.05;3.63;;;;;;;26.50;24.07;97850.72;5012270;28;20030;-27
2022/02/28 11:25:55;;;;;;;10.07;3.58;;;;;;;26.51;24.13;97844.56;5013524;28;20104;-27